sensor_id;sensor_type;location;lat;lon;timestamp;P1;durP1;ratioP1;P2;durP2;ratioP2
47599;SDS011;33323;52.124;6.018;2023-11-19T00:01:05;29.45;;;16.25;;
47599;SDS011;33323;52.124;6.018;2023-11-19T00:03:33;33.70;;;15.02;;
47599;SDS011;33323;52.124;6.018;2023-11-19T00:06:01;27.45;;;14.30;;
47599;SDS011;33323;52.124;6.018;2023-11-19T00:08:30;28.25;;;15.77;;
47599;SDS011;33323;52.124;6.018;2023-11-19T00:10:57;28.73;;;13.50;;
47599;SDS011;33323;52.124;6.018;2023-11-19T00:13:24;22.80;;;13.52;;
47599;SDS011;33323;52.124;6.018;2023-11-19T00:15:52;25.73;;;13.38;;
47599;SDS011;33323;52.124;6.018;2023-11-19T00:18:19;25.23;;;10.65;;
47599;SDS011;33323;52.124;6.018;2023-11-19T00:20:47;22.02;;;10.23;;
47599;SDS011;33323;52.124;6.018;2023-11-19T00:23:14;23.10;;;10.60;;
47599;SDS011;33323;52.124;6.018;2023-11-19T00:25:41;22.17;;;12.18;;
47599;SDS011;33323;52.124;6.018;2023-11-19T00:28:08;26.42;;;10.63;;
47599;SDS011;33323;52.124;6.018;2023-11-19T00:30:36;24.23;;;11.13;;
47599;SDS011;33323;52.124;6.018;2023-11-19T00:33:03;27.30;;;10.93;;
47599;SDS011;33323;52.124;6.018;2023-11-19T00:35:30;30.27;;;11.23;;
47599;SDS011;33323;52.124;6.018;2023-11-19T00:37:58;24.10;;;11.27;;
47599;SDS011;33323;52.124;6.018;2023-11-19T00:40:25;24.55;;;9.45;;
47599;SDS011;33323;52.124;6.018;2023-11-19T00:42:52;24.23;;;10.90;;
47599;SDS011;33323;52.124;6.018;2023-11-19T00:45:19;17.10;;;7.57;;
47599;SDS011;33323;52.124;6.018;2023-11-19T00:47:46;24.67;;;8.50;;
47599;SDS011;33323;52.124;6.018;2023-11-19T00:50:13;28.05;;;9.63;;
47599;SDS011;33323;52.124;6.018;2023-11-19T00:52:40;14.57;;;8.05;;
47599;SDS011;33323;52.124;6.018;2023-11-19T00:55:09;23.27;;;7.82;;
47599;SDS011;33323;52.124;6.018;2023-11-19T00:57:39;18.45;;;7.70;;
47599;SDS011;33323;52.124;6.018;2023-11-19T01:00:07;27.92;;;7.53;;
47599;SDS011;33323;52.124;6.018;2023-11-19T01:02:45;16.55;;;8.75;;
47599;SDS011;33323;52.124;6.018;2023-11-19T01:05:13;19.95;;;7.45;;
47599;SDS011;33323;52.124;6.018;2023-11-19T01:07:46;17.45;;;6.30;;
47599;SDS011;33323;52.124;6.018;2023-11-19T01:10:13;20.70;;;6.65;;
47599;SDS011;33323;52.124;6.018;2023-11-19T01:12:42;18.35;;;6.10;;
47599;SDS011;33323;52.124;6.018;2023-11-19T01:15:09;17.02;;;6.90;;
47599;SDS011;33323;52.124;6.018;2023-11-19T01:17:37;18.95;;;6.28;;
47599;SDS011;33323;52.124;6.018;2023-11-19T01:20:05;23.48;;;7.85;;
47599;SDS011;33323;52.124;6.018;2023-11-19T01:22:33;24.98;;;6.55;;
47599;SDS011;33323;52.124;6.018;2023-11-19T01:25:00;25.88;;;7.10;;
47599;SDS011;33323;52.124;6.018;2023-11-19T01:27:27;33.10;;;7.68;;
47599;SDS011;33323;52.124;6.018;2023-11-19T01:29:54;20.27;;;6.95;;
47599;SDS011;33323;52.124;6.018;2023-11-19T01:32:21;25.48;;;7.15;;
47599;SDS011;33323;52.124;6.018;2023-11-19T01:34:50;32.38;;;8.55;;
47599;SDS011;33323;52.124;6.018;2023-11-19T01:37:17;18.60;;;5.72;;
47599;SDS011;33323;52.124;6.018;2023-11-19T01:39:44;23.50;;;7.20;;
47599;SDS011;33323;52.124;6.018;2023-11-19T01:42:23;19.17;;;6.40;;
47599;SDS011;33323;52.124;6.018;2023-11-19T01:45:37;14.38;;;5.80;;
47599;SDS011;33323;52.124;6.018;2023-11-19T01:48:04;28.23;;;5.95;;
47599;SDS011;33323;52.124;6.018;2023-11-19T01:50:31;33.35;;;7.25;;
47599;SDS011;33323;52.124;6.018;2023-11-19T01:53:00;31.10;;;7.55;;
47599;SDS011;33323;52.124;6.018;2023-11-19T01:55:27;33.78;;;6.90;;
47599;SDS011;33323;52.124;6.018;2023-11-19T01:57:55;20.10;;;6.25;;
47599;SDS011;33323;52.124;6.018;2023-11-19T02:00:28;21.85;;;5.85;;
47599;SDS011;33323;52.124;6.018;2023-11-19T02:02:55;15.35;;;6.25;;
47599;SDS011;33323;52.124;6.018;2023-11-19T02:05:22;32.63;;;6.72;;
47599;SDS011;33323;52.124;6.018;2023-11-19T02:07:49;25.52;;;5.70;;
47599;SDS011;33323;52.124;6.018;2023-11-19T02:10:17;22.38;;;5.43;;
47599;SDS011;33323;52.124;6.018;2023-11-19T02:12:45;22.40;;;5.85;;
47599;SDS011;33323;52.124;6.018;2023-11-19T02:15:13;25.95;;;6.47;;
47599;SDS011;33323;52.124;6.018;2023-11-19T02:17:40;24.80;;;5.97;;
47599;SDS011;33323;52.124;6.018;2023-11-19T02:20:07;25.95;;;6.75;;
47599;SDS011;33323;52.124;6.018;2023-11-19T02:22:39;36.13;;;8.13;;
47599;SDS011;33323;52.124;6.018;2023-11-19T02:25:25;19.42;;;5.55;;
47599;SDS011;33323;52.124;6.018;2023-11-19T02:27:58;26.33;;;6.07;;
47599;SDS011;33323;52.124;6.018;2023-11-19T02:30:27;28.27;;;5.43;;
47599;SDS011;33323;52.124;6.018;2023-11-19T02:32:55;36.47;;;7.28;;
47599;SDS011;33323;52.124;6.018;2023-11-19T02:35:25;20.95;;;5.65;;
47599;SDS011;33323;52.124;6.018;2023-11-19T02:37:58;23.45;;;6.50;;
47599;SDS011;33323;52.124;6.018;2023-11-19T02:40:26;22.00;;;6.15;;
47599;SDS011;33323;52.124;6.018;2023-11-19T02:42:53;27.63;;;5.40;;
47599;SDS011;33323;52.124;6.018;2023-11-19T02:45:22;35.83;;;6.30;;
47599;SDS011;33323;52.124;6.018;2023-11-19T02:47:50;25.27;;;4.57;;
47599;SDS011;33323;52.124;6.018;2023-11-19T02:50:19;29.88;;;6.35;;
47599;SDS011;33323;52.124;6.018;2023-11-19T02:52:53;24.95;;;5.75;;
47599;SDS011;33323;52.124;6.018;2023-11-19T02:55:24;23.83;;;4.68;;
47599;SDS011;33323;52.124;6.018;2023-11-19T02:57:54;35.28;;;7.85;;
47599;SDS011;33323;52.124;6.018;2023-11-19T03:00:23;21.95;;;5.90;;
47599;SDS011;33323;52.124;6.018;2023-11-19T03:02:51;34.45;;;5.90;;
47599;SDS011;33323;52.124;6.018;2023-11-19T03:05:43;18.77;;;5.13;;
47599;SDS011;33323;52.124;6.018;2023-11-19T03:08:11;31.50;;;5.90;;
47599;SDS011;33323;52.124;6.018;2023-11-19T03:10:49;26.27;;;5.45;;
47599;SDS011;33323;52.124;6.018;2023-11-19T03:13:16;28.42;;;5.10;;
47599;SDS011;33323;52.124;6.018;2023-11-19T03:15:44;24.25;;;4.70;;
47599;SDS011;33323;52.124;6.018;2023-11-19T03:18:12;35.97;;;8.35;;
47599;SDS011;33323;52.124;6.018;2023-11-19T03:20:39;30.92;;;6.40;;
47599;SDS011;33323;52.124;6.018;2023-11-19T03:23:06;43.63;;;7.88;;
47599;SDS011;33323;52.124;6.018;2023-11-19T03:25:33;30.98;;;5.57;;
47599;SDS011;33323;52.124;6.018;2023-11-19T03:28:03;46.97;;;6.35;;
47599;SDS011;33323;52.124;6.018;2023-11-19T03:30:31;36.63;;;7.10;;
47599;SDS011;33323;52.124;6.018;2023-11-19T03:33:00;36.03;;;7.45;;
47599;SDS011;33323;52.124;6.018;2023-11-19T03:35:28;34.42;;;5.53;;
47599;SDS011;33323;52.124;6.018;2023-11-19T03:37:56;42.63;;;7.78;;
47599;SDS011;33323;52.124;6.018;2023-11-19T03:40:23;28.65;;;6.88;;
47599;SDS011;33323;52.124;6.018;2023-11-19T03:42:52;28.40;;;5.13;;
47599;SDS011;33323;52.124;6.018;2023-11-19T03:45:19;34.25;;;5.97;;
47599;SDS011;33323;52.124;6.018;2023-11-19T03:47:47;39.92;;;7.45;;
47599;SDS011;33323;52.124;6.018;2023-11-19T03:50:16;36.38;;;8.50;;
47599;SDS011;33323;52.124;6.018;2023-11-19T03:52:45;40.35;;;6.82;;
47599;SDS011;33323;52.124;6.018;2023-11-19T03:55:13;32.15;;;6.63;;
47599;SDS011;33323;52.124;6.018;2023-11-19T03:57:40;33.97;;;6.35;;
47599;SDS011;33323;52.124;6.018;2023-11-19T04:00:07;29.85;;;6.30;;
47599;SDS011;33323;52.124;6.018;2023-11-19T04:02:40;39.53;;;7.40;;
47599;SDS011;33323;52.124;6.018;2023-11-19T04:05:07;40.42;;;9.77;;
47599;SDS011;33323;52.124;6.018;2023-11-19T04:07:36;33.28;;;6.65;;
47599;SDS011;33323;52.124;6.018;2023-11-19T04:10:03;29.30;;;6.53;;
47599;SDS011;33323;52.124;6.018;2023-11-19T04:12:31;55.75;;;8.70;;
47599;SDS011;33323;52.124;6.018;2023-11-19T04:14:58;43.08;;;7.72;;
47599;SDS011;33323;52.124;6.018;2023-11-19T04:17:27;31.08;;;7.20;;
47599;SDS011;33323;52.124;6.018;2023-11-19T04:19:54;39.28;;;7.03;;
47599;SDS011;33323;52.124;6.018;2023-11-19T04:22:22;38.60;;;6.57;;
47599;SDS011;33323;52.124;6.018;2023-11-19T04:24:50;27.50;;;6.47;;
47599;SDS011;33323;52.124;6.018;2023-11-19T04:27:17;38.80;;;7.10;;
47599;SDS011;33323;52.124;6.018;2023-11-19T04:29:44;38.53;;;7.53;;
47599;SDS011;33323;52.124;6.018;2023-11-19T04:32:14;37.55;;;6.80;;
47599;SDS011;33323;52.124;6.018;2023-11-19T04:34:42;44.38;;;8.48;;
47599;SDS011;33323;52.124;6.018;2023-11-19T04:37:09;45.03;;;6.68;;
47599;SDS011;33323;52.124;6.018;2023-11-19T04:39:39;42.85;;;7.82;;
47599;SDS011;33323;52.124;6.018;2023-11-19T04:42:06;45.85;;;7.78;;
47599;SDS011;33323;52.124;6.018;2023-11-19T04:44:33;24.08;;;6.00;;
47599;SDS011;33323;52.124;6.018;2023-11-19T04:47:00;52.65;;;9.40;;
47599;SDS011;33323;52.124;6.018;2023-11-19T04:49:27;44.08;;;7.18;;
47599;SDS011;33323;52.124;6.018;2023-11-19T04:51:54;38.42;;;5.63;;
47599;SDS011;33323;52.124;6.018;2023-11-19T04:54:21;36.45;;;7.50;;
47599;SDS011;33323;52.124;6.018;2023-11-19T04:56:49;38.78;;;8.07;;
47599;SDS011;33323;52.124;6.018;2023-11-19T04:59:16;43.85;;;9.93;;
47599;SDS011;33323;52.124;6.018;2023-11-19T05:01:46;47.35;;;6.88;;
47599;SDS011;33323;52.124;6.018;2023-11-19T05:04:14;31.42;;;6.47;;
47599;SDS011;33323;52.124;6.018;2023-11-19T05:06:41;37.30;;;8.35;;
47599;SDS011;33323;52.124;6.018;2023-11-19T05:09:09;32.90;;;8.27;;
47599;SDS011;33323;52.124;6.018;2023-11-19T05:11:38;49.58;;;8.73;;
47599;SDS011;33323;52.124;6.018;2023-11-19T05:14:17;43.17;;;8.55;;
47599;SDS011;33323;52.124;6.018;2023-11-19T05:16:48;28.98;;;6.07;;
47599;SDS011;33323;52.124;6.018;2023-11-19T05:19:15;34.13;;;5.20;;
47599;SDS011;33323;52.124;6.018;2023-11-19T05:21:42;32.15;;;5.90;;
47599;SDS011;33323;52.124;6.018;2023-11-19T05:24:10;36.20;;;8.43;;
47599;SDS011;33323;52.124;6.018;2023-11-19T05:26:40;34.42;;;6.13;;
47599;SDS011;33323;52.124;6.018;2023-11-19T05:29:08;48.35;;;8.65;;
47599;SDS011;33323;52.124;6.018;2023-11-19T05:31:35;34.83;;;5.88;;
47599;SDS011;33323;52.124;6.018;2023-11-19T05:34:04;39.75;;;7.00;;
47599;SDS011;33323;52.124;6.018;2023-11-19T05:36:31;45.40;;;6.72;;
47599;SDS011;33323;52.124;6.018;2023-11-19T05:38:59;34.47;;;5.70;;
47599;SDS011;33323;52.124;6.018;2023-11-19T05:41:26;45.40;;;10.15;;
47599;SDS011;33323;52.124;6.018;2023-11-19T05:43:53;38.78;;;6.82;;
47599;SDS011;33323;52.124;6.018;2023-11-19T05:46:20;40.05;;;7.05;;
47599;SDS011;33323;52.124;6.018;2023-11-19T05:48:48;37.55;;;5.50;;
47599;SDS011;33323;52.124;6.018;2023-11-19T05:51:15;50.30;;;6.72;;
47599;SDS011;33323;52.124;6.018;2023-11-19T05:53:43;26.85;;;6.35;;
47599;SDS011;33323;52.124;6.018;2023-11-19T05:56:12;42.33;;;9.10;;
47599;SDS011;33323;52.124;6.018;2023-11-19T05:58:39;40.70;;;7.05;;
47599;SDS011;33323;52.124;6.018;2023-11-19T06:01:07;37.83;;;7.53;;
47599;SDS011;33323;52.124;6.018;2023-11-19T06:03:35;38.08;;;7.65;;
47599;SDS011;33323;52.124;6.018;2023-11-19T06:06:03;37.05;;;5.82;;
47599;SDS011;33323;52.124;6.018;2023-11-19T06:08:31;36.00;;;6.93;;
47599;SDS011;33323;52.124;6.018;2023-11-19T06:10:59;41.30;;;9.82;;
47599;SDS011;33323;52.124;6.018;2023-11-19T06:13:27;28.60;;;7.22;;
47599;SDS011;33323;52.124;6.018;2023-11-19T06:15:57;36.15;;;5.90;;
47599;SDS011;33323;52.124;6.018;2023-11-19T06:18:25;32.97;;;6.90;;
47599;SDS011;33323;52.124;6.018;2023-11-19T06:20:52;32.00;;;7.05;;
47599;SDS011;33323;52.124;6.018;2023-11-19T06:23:19;40.95;;;6.63;;
47599;SDS011;33323;52.124;6.018;2023-11-19T06:25:46;35.08;;;6.95;;
47599;SDS011;33323;52.124;6.018;2023-11-19T06:28:13;39.80;;;5.90;;
47599;SDS011;33323;52.124;6.018;2023-11-19T06:30:41;50.10;;;7.72;;
47599;SDS011;33323;52.124;6.018;2023-11-19T06:33:09;35.45;;;5.97;;
47599;SDS011;33323;52.124;6.018;2023-11-19T06:35:39;38.38;;;9.90;;
47599;SDS011;33323;52.124;6.018;2023-11-19T06:38:06;48.75;;;9.32;;
47599;SDS011;33323;52.124;6.018;2023-11-19T06:40:33;30.48;;;6.53;;
47599;SDS011;33323;52.124;6.018;2023-11-19T06:43:01;30.45;;;5.45;;
47599;SDS011;33323;52.124;6.018;2023-11-19T06:45:30;37.85;;;7.78;;
47599;SDS011;33323;52.124;6.018;2023-11-19T06:48:00;39.40;;;7.93;;
47599;SDS011;33323;52.124;6.018;2023-11-19T06:50:30;35.85;;;6.78;;
47599;SDS011;33323;52.124;6.018;2023-11-19T06:52:57;33.50;;;7.75;;
47599;SDS011;33323;52.124;6.018;2023-11-19T06:55:26;47.13;;;7.25;;
47599;SDS011;33323;52.124;6.018;2023-11-19T06:57:53;41.95;;;6.72;;
47599;SDS011;33323;52.124;6.018;2023-11-19T07:00:21;50.85;;;8.07;;
47599;SDS011;33323;52.124;6.018;2023-11-19T07:02:48;40.08;;;7.93;;
47599;SDS011;33323;52.124;6.018;2023-11-19T07:05:17;36.80;;;7.68;;
47599;SDS011;33323;52.124;6.018;2023-11-19T07:07:45;37.75;;;6.68;;
47599;SDS011;33323;52.124;6.018;2023-11-19T07:10:13;44.33;;;5.85;;
47599;SDS011;33323;52.124;6.018;2023-11-19T07:12:40;40.83;;;8.45;;
47599;SDS011;33323;52.124;6.018;2023-11-19T07:15:08;29.75;;;6.72;;
47599;SDS011;33323;52.124;6.018;2023-11-19T07:17:36;37.22;;;6.50;;
47599;SDS011;33323;52.124;6.018;2023-11-19T07:20:03;45.90;;;8.77;;
47599;SDS011;33323;52.124;6.018;2023-11-19T07:22:31;45.35;;;5.22;;
47599;SDS011;33323;52.124;6.018;2023-11-19T07:24:58;41.75;;;6.55;;
47599;SDS011;33323;52.124;6.018;2023-11-19T07:27:25;32.08;;;6.68;;
47599;SDS011;33323;52.124;6.018;2023-11-19T07:29:53;39.75;;;7.88;;
47599;SDS011;33323;52.124;6.018;2023-11-19T07:32:20;39.45;;;7.97;;
47599;SDS011;33323;52.124;6.018;2023-11-19T07:34:47;47.35;;;6.03;;
47599;SDS011;33323;52.124;6.018;2023-11-19T07:37:14;44.83;;;8.02;;
47599;SDS011;33323;52.124;6.018;2023-11-19T07:39:43;43.28;;;7.78;;
47599;SDS011;33323;52.124;6.018;2023-11-19T07:42:10;32.95;;;8.43;;
47599;SDS011;33323;52.124;6.018;2023-11-19T07:44:37;44.50;;;8.85;;
47599;SDS011;33323;52.124;6.018;2023-11-19T07:47:04;42.30;;;8.02;;
47599;SDS011;33323;52.124;6.018;2023-11-19T07:49:31;35.08;;;7.45;;
47599;SDS011;33323;52.124;6.018;2023-11-19T07:51:59;41.78;;;8.07;;
47599;SDS011;33323;52.124;6.018;2023-11-19T07:54:26;52.38;;;6.75;;
47599;SDS011;33323;52.124;6.018;2023-11-19T07:56:53;38.42;;;7.50;;
47599;SDS011;33323;52.124;6.018;2023-11-19T07:59:21;43.20;;;7.53;;
47599;SDS011;33323;52.124;6.018;2023-11-19T08:01:48;50.67;;;9.80;;
47599;SDS011;33323;52.124;6.018;2023-11-19T08:04:15;31.45;;;7.28;;
47599;SDS011;33323;52.124;6.018;2023-11-19T08:06:42;55.13;;;9.75;;
47599;SDS011;33323;52.124;6.018;2023-11-19T08:09:10;33.92;;;10.05;;
47599;SDS011;33323;52.124;6.018;2023-11-19T08:11:41;26.63;;;4.97;;
47599;SDS011;33323;52.124;6.018;2023-11-19T08:14:08;33.75;;;6.68;;
47599;SDS011;33323;52.124;6.018;2023-11-19T08:16:36;37.47;;;6.45;;
47599;SDS011;33323;52.124;6.018;2023-11-19T08:19:04;42.08;;;7.20;;
47599;SDS011;33323;52.124;6.018;2023-11-19T08:21:31;39.42;;;4.97;;
47599;SDS011;33323;52.124;6.018;2023-11-19T08:23:58;37.70;;;6.20;;
47599;SDS011;33323;52.124;6.018;2023-11-19T08:26:25;29.20;;;5.22;;
47599;SDS011;33323;52.124;6.018;2023-11-19T08:28:53;42.60;;;6.65;;
47599;SDS011;33323;52.124;6.018;2023-11-19T08:31:20;35.97;;;8.80;;
47599;SDS011;33323;52.124;6.018;2023-11-19T08:33:47;40.65;;;6.53;;
47599;SDS011;33323;52.124;6.018;2023-11-19T08:36:17;40.00;;;8.07;;
47599;SDS011;33323;52.124;6.018;2023-11-19T08:38:44;36.80;;;5.50;;
47599;SDS011;33323;52.124;6.018;2023-11-19T08:41:11;53.53;;;9.07;;
47599;SDS011;33323;52.124;6.018;2023-11-19T08:43:38;40.10;;;8.07;;
47599;SDS011;33323;52.124;6.018;2023-11-19T08:46:10;32.40;;;7.05;;
47599;SDS011;33323;52.124;6.018;2023-11-19T08:48:38;39.47;;;5.18;;
47599;SDS011;33323;52.124;6.018;2023-11-19T08:51:05;46.15;;;5.35;;
47599;SDS011;33323;52.124;6.018;2023-11-19T08:53:33;41.30;;;7.78;;
47599;SDS011;33323;52.124;6.018;2023-11-19T08:56:01;42.13;;;7.45;;
47599;SDS011;33323;52.124;6.018;2023-11-19T08:58:30;45.58;;;6.72;;
47599;SDS011;33323;52.124;6.018;2023-11-19T09:00:58;35.22;;;6.45;;
47599;SDS011;33323;52.124;6.018;2023-11-19T09:03:25;38.40;;;7.93;;
47599;SDS011;33323;52.124;6.018;2023-11-19T09:05:53;42.17;;;8.00;;
47599;SDS011;33323;52.124;6.018;2023-11-19T09:08:21;41.70;;;8.02;;
47599;SDS011;33323;52.124;6.018;2023-11-19T09:10:48;33.35;;;7.50;;
47599;SDS011;33323;52.124;6.018;2023-11-19T09:13:16;30.73;;;5.85;;
47599;SDS011;33323;52.124;6.018;2023-11-19T09:15:43;36.60;;;8.45;;
47599;SDS011;33323;52.124;6.018;2023-11-19T09:18:10;40.35;;;7.95;;
47599;SDS011;33323;52.124;6.018;2023-11-19T09:20:38;40.17;;;6.43;;
47599;SDS011;33323;52.124;6.018;2023-11-19T09:23:06;35.97;;;6.30;;
47599;SDS011;33323;52.124;6.018;2023-11-19T09:25:35;26.75;;;5.70;;
47599;SDS011;33323;52.124;6.018;2023-11-19T09:28:06;41.67;;;7.45;;
47599;SDS011;33323;52.124;6.018;2023-11-19T09:30:35;31.30;;;5.88;;
47599;SDS011;33323;52.124;6.018;2023-11-19T09:33:02;37.20;;;5.20;;
47599;SDS011;33323;52.124;6.018;2023-11-19T09:35:30;31.38;;;5.60;;
47599;SDS011;33323;52.124;6.018;2023-11-19T09:37:57;21.52;;;6.43;;
47599;SDS011;33323;52.124;6.018;2023-11-19T09:40:27;23.48;;;4.38;;
47599;SDS011;33323;52.124;6.018;2023-11-19T09:42:55;31.00;;;5.40;;
47599;SDS011;33323;52.124;6.018;2023-11-19T09:45:22;31.52;;;4.53;;
47599;SDS011;33323;52.124;6.018;2023-11-19T09:47:55;23.73;;;5.75;;
47599;SDS011;33323;52.124;6.018;2023-11-19T09:50:25;27.33;;;7.43;;
47599;SDS011;33323;52.124;6.018;2023-11-19T09:52:52;35.53;;;7.00;;
47599;SDS011;33323;52.124;6.018;2023-11-19T09:55:20;36.17;;;6.97;;
47599;SDS011;33323;52.124;6.018;2023-11-19T09:57:47;35.40;;;6.88;;
47599;SDS011;33323;52.124;6.018;2023-11-19T10:00:16;27.63;;;5.47;;
47599;SDS011;33323;52.124;6.018;2023-11-19T10:02:48;26.88;;;5.53;;
47599;SDS011;33323;52.124;6.018;2023-11-19T10:05:17;30.42;;;5.32;;
47599;SDS011;33323;52.124;6.018;2023-11-19T10:07:47;46.30;;;7.72;;
47599;SDS011;33323;52.124;6.018;2023-11-19T10:10:15;32.05;;;6.20;;
47599;SDS011;33323;52.124;6.018;2023-11-19T10:12:45;39.72;;;5.68;;
47599;SDS011;33323;52.124;6.018;2023-11-19T10:15:25;38.40;;;7.93;;
47599;SDS011;33323;52.124;6.018;2023-11-19T10:17:57;37.15;;;8.57;;
47599;SDS011;33323;52.124;6.018;2023-11-19T10:20:24;34.30;;;8.57;;
47599;SDS011;33323;52.124;6.018;2023-11-19T10:22:53;23.40;;;5.55;;
47599;SDS011;33323;52.124;6.018;2023-11-19T10:25:25;26.23;;;5.40;;
47599;SDS011;33323;52.124;6.018;2023-11-19T10:27:54;31.67;;;6.10;;
47599;SDS011;33323;52.124;6.018;2023-11-19T10:30:23;31.95;;;5.10;;
47599;SDS011;33323;52.124;6.018;2023-11-19T10:33:08;31.27;;;5.18;;
47599;SDS011;33323;52.124;6.018;2023-11-19T10:35:53;27.02;;;4.97;;
47599;SDS011;33323;52.124;6.018;2023-11-19T10:38:26;27.13;;;6.28;;
47599;SDS011;33323;52.124;6.018;2023-11-19T10:40:53;22.67;;;4.80;;
47599;SDS011;33323;52.124;6.018;2023-11-19T10:43:21;29.38;;;6.18;;
47599;SDS011;33323;52.124;6.018;2023-11-19T10:45:49;35.30;;;7.88;;
47599;SDS011;33323;52.124;6.018;2023-11-19T10:48:17;35.42;;;8.38;;
47599;SDS011;33323;52.124;6.018;2023-11-19T10:50:45;38.45;;;6.05;;
47599;SDS011;33323;52.124;6.018;2023-11-19T10:53:16;25.45;;;6.35;;
47599;SDS011;33323;52.124;6.018;2023-11-19T10:55:47;30.17;;;5.20;;
47599;SDS011;33323;52.124;6.018;2023-11-19T10:58:15;29.10;;;4.25;;
47599;SDS011;33323;52.124;6.018;2023-11-19T11:00:56;26.73;;;4.55;;
47599;SDS011;33323;52.124;6.018;2023-11-19T11:03:30;24.95;;;5.28;;
47599;SDS011;33323;52.124;6.018;2023-11-19T11:06:06;28.95;;;6.45;;
47599;SDS011;33323;52.124;6.018;2023-11-19T11:08:39;29.77;;;6.70;;
47599;SDS011;33323;52.124;6.018;2023-11-19T11:11:07;31.63;;;5.13;;
47599;SDS011;33323;52.124;6.018;2023-11-19T11:13:36;24.90;;;7.45;;
47599;SDS011;33323;52.124;6.018;2023-11-19T11:16:05;28.05;;;5.07;;
47599;SDS011;33323;52.124;6.018;2023-11-19T11:18:34;22.20;;;4.70;;
47599;SDS011;33323;52.124;6.018;2023-11-19T11:21:11;30.63;;;4.88;;
47599;SDS011;33323;52.124;6.018;2023-11-19T11:23:56;24.10;;;5.32;;
47599;SDS011;33323;52.124;6.018;2023-11-19T11:27:17;32.05;;;5.10;;
47599;SDS011;33323;52.124;6.018;2023-11-19T11:30:20;30.20;;;6.03;;
47599;SDS011;33323;52.124;6.018;2023-11-19T11:36:06;23.75;;;3.72;;
47599;SDS011;33323;52.124;6.018;2023-11-19T11:38:40;19.50;;;3.95;;
47599;SDS011;33323;52.124;6.018;2023-11-19T11:41:23;29.45;;;6.07;;
47599;SDS011;33323;52.124;6.018;2023-11-19T11:43:55;24.75;;;5.03;;
47599;SDS011;33323;52.124;6.018;2023-11-19T11:54:10;23.23;;;3.83;;
47599;SDS011;33323;52.124;6.018;2023-11-19T11:57:02;30.85;;;4.78;;
47599;SDS011;33323;52.124;6.018;2023-11-19T12:02:12;31.63;;;6.28;;
47599;SDS011;33323;52.124;6.018;2023-11-19T12:04:50;21.33;;;3.65;;
47599;SDS011;33323;52.124;6.018;2023-11-19T12:07:23;25.80;;;5.40;;
47599;SDS011;33323;52.124;6.018;2023-11-19T12:09:53;28.17;;;5.25;;
47599;SDS011;33323;52.124;6.018;2023-11-19T12:12:34;25.45;;;5.47;;
47599;SDS011;33323;52.124;6.018;2023-11-19T12:15:05;26.25;;;6.15;;
47599;SDS011;33323;52.124;6.018;2023-11-19T12:17:37;27.05;;;5.57;;
47599;SDS011;33323;52.124;6.018;2023-11-19T12:20:12;35.90;;;8.55;;
47599;SDS011;33323;52.124;6.018;2023-11-19T12:22:40;35.42;;;6.20;;
47599;SDS011;33323;52.124;6.018;2023-11-19T12:25:10;24.15;;;4.25;;
47599;SDS011;33323;52.124;6.018;2023-11-19T12:27:42;19.17;;;5.20;;
47599;SDS011;33323;52.124;6.018;2023-11-19T12:30:21;22.23;;;5.20;;
47599;SDS011;33323;52.124;6.018;2023-11-19T12:32:51;23.45;;;4.68;;
47599;SDS011;33323;52.124;6.018;2023-11-19T12:35:22;24.20;;;4.22;;
47599;SDS011;33323;52.124;6.018;2023-11-19T12:37:50;21.13;;;3.72;;
47599;SDS011;33323;52.124;6.018;2023-11-19T12:40:23;21.02;;;3.55;;
47599;SDS011;33323;52.124;6.018;2023-11-19T12:42:52;23.67;;;4.65;;
47599;SDS011;33323;52.124;6.018;2023-11-19T12:45:21;18.10;;;3.53;;
47599;SDS011;33323;52.124;6.018;2023-11-19T12:48:03;20.15;;;4.55;;
47599;SDS011;33323;52.124;6.018;2023-11-19T12:50:50;19.98;;;3.80;;
47599;SDS011;33323;52.124;6.018;2023-11-19T12:53:22;17.13;;;4.25;;
47599;SDS011;33323;52.124;6.018;2023-11-19T12:55:51;16.80;;;3.65;;
47599;SDS011;33323;52.124;6.018;2023-11-19T12:58:32;20.92;;;3.90;;
47599;SDS011;33323;52.124;6.018;2023-11-19T13:01:02;16.85;;;3.50;;
47599;SDS011;33323;52.124;6.018;2023-11-19T13:03:35;17.77;;;2.83;;
47599;SDS011;33323;52.124;6.018;2023-11-19T13:06:05;19.15;;;2.75;;
47599;SDS011;33323;52.124;6.018;2023-11-19T13:11:11;24.35;;;5.20;;
47599;SDS011;33323;52.124;6.018;2023-11-19T13:13:58;19.58;;;3.42;;
47599;SDS011;33323;52.124;6.018;2023-11-19T13:16:27;21.98;;;4.30;;
47599;SDS011;33323;52.124;6.018;2023-11-19T13:18:55;22.85;;;4.43;;
47599;SDS011;33323;52.124;6.018;2023-11-19T13:21:23;19.23;;;3.72;;
47599;SDS011;33323;52.124;6.018;2023-11-19T13:23:51;16.15;;;4.13;;
47599;SDS011;33323;52.124;6.018;2023-11-19T13:26:18;24.30;;;4.03;;
47599;SDS011;33323;52.124;6.018;2023-11-19T13:28:45;22.73;;;4.32;;
47599;SDS011;33323;52.124;6.018;2023-11-19T13:31:14;15.32;;;3.60;;
47599;SDS011;33323;52.124;6.018;2023-11-19T13:33:41;20.85;;;4.75;;
47599;SDS011;33323;52.124;6.018;2023-11-19T13:36:09;21.85;;;4.20;;
47599;SDS011;33323;52.124;6.018;2023-11-19T13:38:40;17.48;;;2.83;;
47599;SDS011;33323;52.124;6.018;2023-11-19T13:41:08;20.17;;;4.50;;
47599;SDS011;33323;52.124;6.018;2023-11-19T13:43:37;21.98;;;3.35;;
47599;SDS011;33323;52.124;6.018;2023-11-19T13:46:04;25.33;;;3.83;;
47599;SDS011;33323;52.124;6.018;2023-11-19T13:48:32;24.05;;;4.72;;
47599;SDS011;33323;52.124;6.018;2023-11-19T13:50:59;18.70;;;4.93;;
47599;SDS011;33323;52.124;6.018;2023-11-19T13:53:27;23.80;;;3.35;;
47599;SDS011;33323;52.124;6.018;2023-11-19T13:55:54;25.80;;;5.55;;
47599;SDS011;33323;52.124;6.018;2023-11-19T13:58:22;31.45;;;4.13;;
47599;SDS011;33323;52.124;6.018;2023-11-19T14:00:49;23.15;;;4.60;;
47599;SDS011;33323;52.124;6.018;2023-11-19T14:03:18;18.58;;;4.32;;
47599;SDS011;33323;52.124;6.018;2023-11-19T14:05:46;23.70;;;4.53;;
47599;SDS011;33323;52.124;6.018;2023-11-19T14:08:14;26.50;;;4.85;;
47599;SDS011;33323;52.124;6.018;2023-11-19T14:10:51;21.63;;;5.13;;
47599;SDS011;33323;52.124;6.018;2023-11-19T14:13:18;25.17;;;6.97;;
47599;SDS011;33323;52.124;6.018;2023-11-19T14:15:45;25.40;;;4.47;;
47599;SDS011;33323;52.124;6.018;2023-11-19T14:18:15;24.25;;;5.50;;
47599;SDS011;33323;52.124;6.018;2023-11-19T14:20:43;35.30;;;4.85;;
47599;SDS011;33323;52.124;6.018;2023-11-19T14:23:11;29.95;;;4.53;;
47599;SDS011;33323;52.124;6.018;2023-11-19T14:25:38;25.25;;;5.10;;
47599;SDS011;33323;52.124;6.018;2023-11-19T14:28:05;22.25;;;5.13;;
47599;SDS011;33323;52.124;6.018;2023-11-19T14:30:32;20.95;;;4.30;;
47599;SDS011;33323;52.124;6.018;2023-11-19T14:33:01;22.08;;;3.72;;
47599;SDS011;33323;52.124;6.018;2023-11-19T14:35:29;27.92;;;4.65;;
47599;SDS011;33323;52.124;6.018;2023-11-19T14:37:57;25.15;;;4.53;;
47599;SDS011;33323;52.124;6.018;2023-11-19T14:40:24;13.25;;;3.22;;
47599;SDS011;33323;52.124;6.018;2023-11-19T14:42:55;32.08;;;5.05;;
47599;SDS011;33323;52.124;6.018;2023-11-19T14:45:22;28.23;;;7.28;;
47599;SDS011;33323;52.124;6.018;2023-11-19T14:47:49;25.05;;;4.30;;
47599;SDS011;33323;52.124;6.018;2023-11-19T14:50:16;27.20;;;4.97;;
47599;SDS011;33323;52.124;6.018;2023-11-19T14:52:43;28.40;;;5.35;;
47599;SDS011;33323;52.124;6.018;2023-11-19T14:55:10;23.52;;;4.72;;
47599;SDS011;33323;52.124;6.018;2023-11-19T14:57:38;27.02;;;4.32;;
47599;SDS011;33323;52.124;6.018;2023-11-19T15:00:06;26.25;;;4.43;;
47599;SDS011;33323;52.124;6.018;2023-11-19T15:02:40;23.95;;;4.05;;